Decoded Metar for LKKV (KARLOVY VARY in CZECH REPUBLIC) (IATA:KLV) | Meteo·Mobile Aviation Weather
aviador You're here:

LKKV Decoded Metar

KARLOVY VARY in CZECH REPUBLIC
Report Time2019-04-23 08:30:00
UTC Time2019-04-23 08:41:44
Flight Rules mvfr MVFR
Wind100° at 17 kt
W.Decomp.*RWY 11: 16.6 kt HW 3.8 kt LCW
Visibility9999 m
Phenomena:N/A
Clouds:Broken 022 Hf
Expected CloudBase > 2,000 ft AGL from Temp-Dew spread
Ceiling2,200 ft
Temp10°C (ISA -1)
Dew Point05°C (71% RH)
AAT2.8°C
QNH1006 hPa
Density Alt2,218 ft
Elevation1,982 ft
Report Wrong Elevation
Raw Report
LKKV 230830Z 10017KT 9999 BKN022 10/05 Q1006=

Extra information for LKKV:More info

Metar Taf Metar & Taf Last 4 Metars F.Rules Stats Wind Profile Meteogram Temp Stats Airport Information Weather charts Add Link Nearby VenuesMetar ALERT Operation Metar Decoded Social comments